Terminal Aerodrome Forecast
Issued by NWS Shreveport, LA

Home | Current Version | Previous Version | Text Only | Print | Product List | Glossary On
Versions: 1 2 3 4 5 6 7 8 9 10 11 12 13
000
FTUS44 KSHV 312100 AAA
TAFTXK
TAF AMD
KTXK 312105Z 3121/0118 07005KT 6SM BR SCT006 OVC030
      TEMPO 3121/3124 3SM -TSRA BR BKN006CB OVC015CB
     FM010000 VRB06KT P6SM VCTS OVC015CB
     FM010600 VRB06KT P6SM -SHRA OVC015
      TEMPO 0108/0112 4SM BR OVC003
     FM011500 05005KT P6SM OVC015=

USA.gov is the U.S. government's official web portal to all federal, state and local government web resources and services.